Welcome to our Virtual Airline
Sign-in:

Flight MFC6961

  • Submitted By: Karl-Heinz Klotz
  • Departure Airport: Hydaburg SPB (HYG)
  • Arrival Airport: Point Baker SPB (KPB)
  • Aircraft: C185F (N185TMM)
  • Flight Time: 00.56.41
  • Date Submitted: 2019/04/08
  • Route: FOLLOW THE TOUR FP
  • Status: Accepted
Flight Details
Gross Revenue:
(3 load / $ 52.00 per unit
$ 156.00
Fuel Cost:
(29.4835 fuel used @ 5.1 / unit)
$ 150.37

Additional Log Information:

View Log

FS[12:13] ----- Flight Opened -----
FS[12:13] Cigar Box - 1.1.4.0
FS[12:13] FS: Prepar3D V4
FS[12:13] FSUIPC: v5,15
FS[12:13] Flight Number: MFC6961
FS[12:13] FS Aircraft: C185F SKYWAGON AMPHIBIAN
FS[12:13] FS Model: C185
FS[12:13] FS Type: Cessna
FS[12:13] Departure: HYG
FS[12:13] Arrival: KPB
FS[12:13] Flight Level: 2500
FS[12:13] Flight Type: H
FS[12:13] Passengers: 3
FS[12:13] FOB: 111 lbs
FS[12:13] Gate: n/a
FS[12:13] NOTE: Parking Brake Ignored
FS[12:13] Crash Detection: Disabled
FS[12:13] Engines: 1 Piston
FS[12:13] NOTE: Boarding has started
FS[12:13] Parking Brake: Engaged
FS[12:13] Landing Gear: Retracted
FS[12:13] Light Data: Navigation ON
FS[12:13] Light Data: Beacon ON
FS[12:13] Light Data: Strobe lights ON
FS[12:13] Main Door Closed
FS[12:13] COM1: 121.05
FS[12:13] COM2: 127.80
FS[12:13] Transponder: 1200
FS[12:13] NAV1: 115.90
FS[12:13] NAV2: 110.60
FS[12:13] ADF1: 396.0
FS[12:13] ADF2: 240.0
FS[12:13] Navigation Mode: NAV
FS[12:13] Engine 1: Started
FS[12:13] Parking Brake: Released
FS[12:13] NOTE: Taxi started
FS[12:13] NOTE: ----- TAKE OFF -----
FS[12:13] GS: 38 knots
FS[12:13] TAS: 36 knots
FS[12:13] IAS: 37 knots
FS[12:13] VS: 11 fpm
FS[12:13] FOB: 111 lbs
FS[12:13] Heading: 312°
FS[12:13] Pitch: 5°
FS[12:13] Bank: 0°
FS[12:13] Aircraft Weight: 2216,03 lbs
FS[12:13] Nearest Airport: HYG
FS[12:13] Distance: 0,40 miles
FS[12:13] Runway: ???
FS[12:13] Ground Surface: Water
FS[12:13] Ground Condition: Normal
FS[12:13] NOTE: Weather Report
FS[12:13] Wind Heading: 173°
FS[12:13] Wind Speed: 6 knots
FS[12:13] OAT: 11° C
FS[12:13] TAT: 11° C
FS[12:13] Precipitation: None
FS[12:13] Dew Point: 3° C
FS[12:13] Visibility: 45 miles
FS[12:13] METAR: No METAR available for HYG.
FS[12:14] NOTE: Climb started
FS[12:14] View Mode: Virtual Cockpit
FS[12:16] NOTE: TOC reached
FS[12:16] NOTE: Cruise started
FS[12:16] GS: 101 knots
FS[12:16] TAS: 101 knots
FS[12:16] IAS: 97 knots
FS[12:16] VS: 196 fpm
FS[12:16] FOB: 106 lbs
FS[12:16] Heading: 343°
FS[12:16] Pitch: 2°
FS[12:16] Bank: 0°
FS[12:16] Aircraft Weight: 2211,56 lbs
FS[12:29] Recovery: Flight Saved
FS[12:39] Flaps: Position 1
FS[12:39] GS: 97 knots
FS[12:39] TAS: 96 knots
FS[12:39] IAS: 93 knots
FS[12:39] VS: 62 fpm
FS[12:39] Flaps: Position 2
FS[12:39] GS: 85 knots
FS[12:39] TAS: 84 knots
FS[12:39] IAS: 81 knots
FS[12:39] VS: -240 fpm
FS[12:40] Flaps: Position 3
FS[12:40] GS: 79 knots
FS[12:40] TAS: 78 knots
FS[12:40] IAS: 76 knots
FS[12:40] VS: -539 fpm
FS[12:41] NOTE: TOD reached
FS[12:41] NOTE: Descent started
FS[12:41] GS: 68 knots
FS[12:41] TAS: 70 knots
FS[12:41] IAS: 68 knots
FS[12:41] VS: -942 fpm
FS[12:41] FOB: 81 lbs
FS[12:41] Heading: 305°
FS[12:41] Pitch: 8°
FS[12:41] Bank: 0°
FS[12:41] Aircraft Weight: 2186,40 lbs
FS[12:41] NOTE: On approach
FS[12:41] Flaps: Position 4
FS[12:41] GS: 68 knots
FS[12:41] TAS: 69 knots
FS[12:41] IAS: 68 knots
FS[12:41] VS: -890 fpm
FS[12:44] NOTE: ----- LANDED -----
FS[12:44] Landing Rate: -136,10 fpm
FS[12:44] GS: 42 knots
FS[12:44] TAS: 44 knots
FS[12:44] IAS: 45 knots
FS[12:44] VS: -134 fpm
FS[12:44] FOB: 80 lbs
FS[12:44] Heading: 322°
FS[12:44] Pitch: 4°
FS[12:44] Bank: 0°
FS[12:44] Aircraft Weight: 2185,60 lbs
FS[12:44] Nearest Airport: 16K
FS[12:44] Distance: 0,42 miles
FS[12:44] Runway: ???
FS[12:44] Ground Surface: Water
FS[12:44] Ground Condition: Normal
FS[12:44] NOTE: Weather Report
FS[12:44] Wind Heading: 257°
FS[12:44] Wind Speed: 2 knots
FS[12:44] OAT: 6° C
FS[12:44] TAT: 6° C
FS[12:44] Precipitation: None
FS[12:44] Dew Point: 0° C
FS[12:44] Visibility: 43 miles
FS[12:44] METAR: KPBF 080553Z AUTO 06004KT 10SM SCT045 OVC060 17/15 A2993 RMK AO2 RAB26E37 SLP134 P0000 60036 T01670150 10172 20161 401830161 56012KPBG 080553Z AUTO 06/04 A3005 RMK AO2 RAEMM SLP178 P0002 60005 T00560039 10089 20050 58019 PWINO $KPBH 080615Z AUTO 00000KT 10SM SCT019 06/06 A2979 RMK AO2 T00600060KPBI 080553Z 13009KT 10SM SCT019 SCT250 24/20 A3009 RMK AO2 SLP190 T02440200 10256 20244 58008 $KPBX 080615Z AUTO 00000KT 10SM CLR 18/15 A3000 RMK AO2 T01750148
FS[12:44] View Mode: Virtual Cockpit
FS[12:44] NOTE: Taxi started
FS[12:45] Engine 1: Stopped
FS[12:45] Flaps: Position 3
FS[12:45] Flaps: Position 2
FS[13:10] Flaps: Position 0
FS[13:12] Engine 1: Started
FS[13:12] View Mode: Virtual Cockpit
FS[13:15] Recovery: Flight Saved
FS[13:31] Recovery: Flight Saved
FS[13:33] Flaps: Position 1
FS[13:33] GS: 95 knots
FS[13:33] TAS: 93 knots
FS[13:33] IAS: 91 knots
FS[13:33] VS: 462 fpm
FS[13:33] Flaps: Position 2
FS[13:33] GS: 85 knots
FS[13:33] TAS: 84 knots
FS[13:33] IAS: 82 knots
FS[13:33] VS: 22 fpm
FS[13:34] Flaps: Position 3
FS[13:34] GS: 83 knots
FS[13:34] TAS: 82 knots
FS[13:34] IAS: 81 knots
FS[13:34] VS: -460 fpm
FS[13:34] Flaps: Position 4
FS[13:34] GS: 66 knots
FS[13:34] TAS: 68 knots
FS[13:34] IAS: 69 knots
FS[13:34] VS: -1304 fpm
FS[13:36] NOTE: ----- LANDED -----
FS[13:36] Landing Rate: -56,13 fpm
FS[13:36] GS: 44 knots
FS[13:36] TAS: 44 knots
FS[13:36] IAS: 45 knots
FS[13:36] VS: -55 fpm
FS[13:36] FOB: 46 lbs
FS[13:36] Heading: 335°
FS[13:36] Pitch: 4°
FS[13:36] Bank: -1°
FS[13:36] Aircraft Weight: 2150,88 lbs
FS[13:36] Nearest Airport: KPB
FS[13:36] Distance: 0,70 miles
FS[13:36] Runway: ???
FS[13:36] Ground Surface: Water
FS[13:36] Ground Condition: Normal
FS[13:36] NOTE: Weather Report
FS[13:36] Wind Heading: 240°
FS[13:36] Wind Speed: 2 knots
FS[13:36] OAT: 9° C
FS[13:36] TAT: 9° C
FS[13:36] Precipitation: None
FS[13:36] Dew Point: 3° C
FS[13:36] Visibility: 50 miles
FS[13:36] METAR: KPBF 080553Z AUTO 06004KT 10SM SCT045 OVC060 17/15 A2993 RMK AO2 RAB26E37 SLP134 P0000 60036 T01670150 10172 20161 401830161 56012KPBG 080553Z AUTO 06/04 A3005 RMK AO2 RAEMM SLP178 P0002 60005 T00560039 10089 20050 58019 PWINO $KPBH 080615Z AUTO 00000KT 10SM SCT019 06/06 A2979 RMK AO2 T00600060KPBI 080553Z 13009KT 10SM SCT019 SCT250 24/20 A3009 RMK AO2 SLP190 T02440200 10256 20244 58008 $KPBX 080615Z AUTO 00000KT 10SM CLR 18/15 A3000 RMK AO2 T01750148
FS[13:36] View Mode: Virtual Cockpit
FS[13:37] Engine 1: Stopped
FS[13:37] Gate: n/a
FS[13:37] NOTE: Flight Completed
FS[13:37] FS Aircraft: C185F SKYWAGON AMPHIBIAN
FS[13:37] FS Model: C185
FS[13:37] FS Type: Cessna
FS[13:37] FOB: 46 lbs
FS[13:37] Fuel Used: 65 lbs
FS[13:37] Flight Time: 00:56:41
FS[13:37] Flight Time (Dawn): 00:00:00
FS[13:37] Flight Time (Day): 00:56:41
FS[13:37] Flight Time (Dusk): 00:00:00
FS[13:37] Flight Time (Night): 00:00:00
FS[13:37] Total Landings: 2
FS[13:37] MaxSim Rate: 0x
FS[13:37] Cigar Box - 1.1.4.0
FS[13:37] ----- Flight Closed -----

Route Map